sensor_id;sensor_type;location;lat;lon;timestamp;temperature;humidity
72380;SHT30;60354;47.798;12.472;2023-08-06T00:01:12;15.32;94.56
72380;SHT30;60354;47.798;12.472;2023-08-06T00:03:38;15.34;94.61
72380;SHT30;60354;47.798;12.472;2023-08-06T00:06:06;15.38;94.89
72380;SHT30;60354;47.798;12.472;2023-08-06T00:08:32;15.38;95.00
72380;SHT30;60354;47.798;12.472;2023-08-06T00:11:00;15.34;95.32
72380;SHT30;60354;47.798;12.472;2023-08-06T00:13:25;15.39;94.98
72380;SHT30;60354;47.798;12.472;2023-08-06T00:15:51;15.35;94.82
72380;SHT30;60354;47.798;12.472;2023-08-06T00:18:16;15.25;95.27
72380;SHT30;60354;47.798;12.472;2023-08-06T00:20:42;15.19;95.37
72380;SHT30;60354;47.798;12.472;2023-08-06T00:23:07;15.19;95.42
72380;SHT30;60354;47.798;12.472;2023-08-06T00:25:33;15.16;95.74
72380;SHT30;60354;47.798;12.472;2023-08-06T00:27:59;15.21;95.21
72380;SHT30;60354;47.798;12.472;2023-08-06T00:30:24;15.18;95.53
72380;SHT30;60354;47.798;12.472;2023-08-06T00:32:50;15.24;95.38
72380;SHT30;60354;47.798;12.472;2023-08-06T00:35:15;15.21;95.44
72380;SHT30;60354;47.798;12.472;2023-08-06T00:37:41;15.21;95.50
72380;SHT30;60354;47.798;12.472;2023-08-06T00:40:07;15.24;95.22
72380;SHT30;60354;47.798;12.472;2023-08-06T00:42:33;15.26;94.84
72380;SHT30;60354;47.798;12.472;2023-08-06T00:45:00;15.21;94.66
72380;SHT30;60354;47.798;12.472;2023-08-06T00:47:26;15.12;94.68
72380;SHT30;60354;47.798;12.472;2023-08-06T00:49:52;15.16;95.06
72380;SHT30;60354;47.798;12.472;2023-08-06T00:52:18;15.18;95.08
72380;SHT30;60354;47.798;12.472;2023-08-06T00:54:43;15.19;94.99
72380;SHT30;60354;47.798;12.472;2023-08-06T00:57:09;15.16;95.27
72380;SHT30;60354;47.798;12.472;2023-08-06T00:59:34;15.19;95.00
72380;SHT30;60354;47.798;12.472;2023-08-06T01:02:00;15.19;94.64
72380;SHT30;60354;47.798;12.472;2023-08-06T01:04:26;15.14;94.63
72380;SHT30;60354;47.798;12.472;2023-08-06T01:09:35;15.05;94.45
72380;SHT30;60354;47.798;12.472;2023-08-06T01:12:23;14.99;94.12
72380;SHT30;60354;47.798;12.472;2023-08-06T01:15:07;15.01;94.54
72380;SHT30;60354;47.798;12.472;2023-08-06T01:17:34;15.02;94.48
72380;SHT30;60354;47.798;12.472;2023-08-06T01:19:59;15.09;94.62
72380;SHT30;60354;47.798;12.472;2023-08-06T01:22:25;15.14;94.26
72380;SHT30;60354;47.798;12.472;2023-08-06T01:24:50;15.07;94.47
72380;SHT30;60354;47.798;12.472;2023-08-06T01:27:33;15.05;94.38
72380;SHT30;60354;47.798;12.472;2023-08-06T01:32:34;15.08;94.53
72380;SHT30;60354;47.798;12.472;2023-08-06T01:35:01;15.09;94.43
72380;SHT30;60354;47.798;12.472;2023-08-06T01:37:29;15.09;94.24
72380;SHT30;60354;47.798;12.472;2023-08-06T01:39:55;15.05;94.38
72380;SHT30;60354;47.798;12.472;2023-08-06T01:42:20;15.01;94.47
72380;SHT30;60354;47.798;12.472;2023-08-06T01:44:46;14.95;94.98
72380;SHT30;60354;47.798;12.472;2023-08-06T01:47:12;14.98;95.34
72380;SHT30;60354;47.798;12.472;2023-08-06T01:49:37;14.89;94.70
72380;SHT30;60354;47.798;12.472;2023-08-06T01:52:03;14.81;93.68
72380;SHT30;60354;47.798;12.472;2023-08-06T01:54:28;14.81;93.62
72380;SHT30;60354;47.798;12.472;2023-08-06T01:56:54;14.74;94.03
72380;SHT30;60354;47.798;12.472;2023-08-06T01:59:20;14.76;93.40
72380;SHT30;60354;47.798;12.472;2023-08-06T02:01:46;14.84;93.40
72380;SHT30;60354;47.798;12.472;2023-08-06T02:04:11;14.83;93.13
72380;SHT30;60354;47.798;12.472;2023-08-06T02:06:37;14.84;93.06
72380;SHT30;60354;47.798;12.472;2023-08-06T02:09:02;14.76;91.04
72380;SHT30;60354;47.798;12.472;2023-08-06T02:11:28;14.78;90.78
72380;SHT30;60354;47.798;12.472;2023-08-06T02:13:53;14.61;90.86
72380;SHT30;60354;47.798;12.472;2023-08-06T02:16:19;14.57;92.09
72380;SHT30;60354;47.798;12.472;2023-08-06T02:18:45;14.56;90.76
72380;SHT30;60354;47.798;12.472;2023-08-06T02:21:10;14.54;91.31
72380;SHT30;60354;47.798;12.472;2023-08-06T02:23:36;14.50;90.51
72380;SHT30;60354;47.798;12.472;2023-08-06T02:26:03;14.54;91.04
72380;SHT30;60354;47.798;12.472;2023-08-06T02:28:29;14.60;91.25
72380;SHT30;60354;47.798;12.472;2023-08-06T02:30:55;14.57;91.19
72380;SHT30;60354;47.798;12.472;2023-08-06T02:33:20;14.63;90.85
72380;SHT30;60354;47.798;12.472;2023-08-06T02:35:47;14.59;90.90
72380;SHT30;60354;47.798;12.472;2023-08-06T02:38:12;14.61;91.64
72380;SHT30;60354;47.798;12.472;2023-08-06T02:40:43;14.64;91.94
72380;SHT30;60354;47.798;12.472;2023-08-06T02:43:10;14.63;91.81
72380;SHT30;60354;47.798;12.472;2023-08-06T02:45:35;14.60;88.63
72380;SHT30;60354;47.798;12.472;2023-08-06T02:48:00;14.60;88.08
72380;SHT30;60354;47.798;12.472;2023-08-06T02:50:27;14.61;88.91
72380;SHT30;60354;47.798;12.472;2023-08-06T02:52:53;14.67;90.02
72380;SHT30;60354;47.798;12.472;2023-08-06T02:55:18;14.68;90.63
72380;SHT30;60354;47.798;12.472;2023-08-06T02:57:46;14.61;91.70
72380;SHT30;60354;47.798;12.472;2023-08-06T03:00:12;14.61;91.45
72380;SHT30;60354;47.798;12.472;2023-08-06T03:02:38;14.54;91.40
72380;SHT30;60354;47.798;12.472;2023-08-06T03:05:18;14.54;90.93
72380;SHT30;60354;47.798;12.472;2023-08-06T03:07:45;14.56;91.27
72380;SHT30;60354;47.798;12.472;2023-08-06T03:10:17;14.48;91.40
72380;SHT30;60354;47.798;12.472;2023-08-06T03:12:43;14.56;91.90
72380;SHT30;60354;47.798;12.472;2023-08-06T03:15:09;14.56;91.16
72380;SHT30;60354;47.798;12.472;2023-08-06T03:17:35;14.53;90.54
72380;SHT30;60354;47.798;12.472;2023-08-06T03:20:02;14.59;90.40
72380;SHT30;60354;47.798;12.472;2023-08-06T03:22:29;14.46;89.07
72380;SHT30;60354;47.798;12.472;2023-08-06T03:24:54;14.47;86.32
72380;SHT30;60354;47.798;12.472;2023-08-06T03:27:22;14.46;88.14
72380;SHT30;60354;47.798;12.472;2023-08-06T03:29:50;14.41;89.44
72380;SHT30;60354;47.798;12.472;2023-08-06T03:32:17;14.41;90.19
72380;SHT30;60354;47.798;12.472;2023-08-06T03:34:43;14.37;89.74
72380;SHT30;60354;47.798;12.472;2023-08-06T03:37:08;14.36;90.63
72380;SHT30;60354;47.798;12.472;2023-08-06T03:39:34;14.33;91.23
72380;SHT30;60354;47.798;12.472;2023-08-06T03:42:00;14.30;90.55
72380;SHT30;60354;47.798;12.472;2023-08-06T03:44:26;14.30;89.79
72380;SHT30;60354;47.798;12.472;2023-08-06T03:46:53;14.30;91.32
72380;SHT30;60354;47.798;12.472;2023-08-06T03:49:19;14.25;89.76
72380;SHT30;60354;47.798;12.472;2023-08-06T03:51:45;14.23;89.94
72380;SHT30;60354;47.798;12.472;2023-08-06T03:54:12;14.25;90.24
72380;SHT30;60354;47.798;12.472;2023-08-06T03:56:37;14.25;91.59
72380;SHT30;60354;47.798;12.472;2023-08-06T03:59:03;14.16;91.87
72380;SHT30;60354;47.798;12.472;2023-08-06T04:01:28;14.12;92.66
72380;SHT30;60354;47.798;12.472;2023-08-06T04:03:54;14.13;92.34
72380;SHT30;60354;47.798;12.472;2023-08-06T04:06:19;14.17;92.11
72380;SHT30;60354;47.798;12.472;2023-08-06T04:08:45;14.20;91.81
72380;SHT30;60354;47.798;12.472;2023-08-06T04:11:13;14.09;92.34
72380;SHT30;60354;47.798;12.472;2023-08-06T04:13:44;14.13;92.49
72380;SHT30;60354;47.798;12.472;2023-08-06T04:16:10;14.25;92.75
72380;SHT30;60354;47.798;12.472;2023-08-06T04:18:35;14.23;92.02
72380;SHT30;60354;47.798;12.472;2023-08-06T04:21:01;14.20;91.16
72380;SHT30;60354;47.798;12.472;2023-08-06T04:23:27;14.26;91.44
72380;SHT30;60354;47.798;12.472;2023-08-06T04:25:57;14.22;90.25
72380;SHT30;60354;47.798;12.472;2023-08-06T04:28:25;14.22;90.56
72380;SHT30;60354;47.798;12.472;2023-08-06T04:30:51;14.22;90.58
72380;SHT30;60354;47.798;12.472;2023-08-06T04:33:19;14.16;90.78
72380;SHT30;60354;47.798;12.472;2023-08-06T04:35:45;14.15;91.38
72380;SHT30;60354;47.798;12.472;2023-08-06T04:38:11;14.09;89.70
72380;SHT30;60354;47.798;12.472;2023-08-06T04:40:37;14.19;90.82
72380;SHT30;60354;47.798;12.472;2023-08-06T04:43:02;14.23;90.55
72380;SHT30;60354;47.798;12.472;2023-08-06T04:45:31;14.29;90.56
72380;SHT30;60354;47.798;12.472;2023-08-06T04:47:57;14.33;89.78
72380;SHT30;60354;47.798;12.472;2023-08-06T04:50:22;14.40;90.62
72380;SHT30;60354;47.798;12.472;2023-08-06T04:52:47;14.37;89.64
72380;SHT30;60354;47.798;12.472;2023-08-06T04:55:13;14.43;88.85
72380;SHT30;60354;47.798;12.472;2023-08-06T04:57:38;14.41;87.86
72380;SHT30;60354;47.798;12.472;2023-08-06T05:00:06;14.43;84.29
72380;SHT30;60354;47.798;12.472;2023-08-06T05:02:31;14.44;85.31
72380;SHT30;60354;47.798;12.472;2023-08-06T05:05:03;14.48;83.94
72380;SHT30;60354;47.798;12.472;2023-08-06T05:07:28;14.46;85.75
72380;SHT30;60354;47.798;12.472;2023-08-06T05:09:54;14.47;82.92
72380;SHT30;60354;47.798;12.472;2023-08-06T05:12:19;14.53;81.70
72380;SHT30;60354;47.798;12.472;2023-08-06T05:14:45;14.59;81.39
72380;SHT30;60354;47.798;12.472;2023-08-06T05:17:10;14.60;81.57
72380;SHT30;60354;47.798;12.472;2023-08-06T05:19:36;14.67;80.31
72380;SHT30;60354;47.798;12.472;2023-08-06T05:22:01;14.70;81.10
72380;SHT30;60354;47.798;12.472;2023-08-06T05:24:27;14.67;80.14
72380;SHT30;60354;47.798;12.472;2023-08-06T05:26:52;14.67;81.51
72380;SHT30;60354;47.798;12.472;2023-08-06T05:29:18;14.71;80.84
72380;SHT30;60354;47.798;12.472;2023-08-06T05:31:43;14.64;82.29
72380;SHT30;60354;47.798;12.472;2023-08-06T05:34:09;14.70;79.28
72380;SHT30;60354;47.798;12.472;2023-08-06T05:36:34;14.73;81.95
72380;SHT30;60354;47.798;12.472;2023-08-06T05:39:00;14.77;79.28
72380;SHT30;60354;47.798;12.472;2023-08-06T05:41:25;14.77;79.91
72380;SHT30;60354;47.798;12.472;2023-08-06T05:43:51;14.81;79.33
72380;SHT30;60354;47.798;12.472;2023-08-06T05:46:16;14.80;79.69
72380;SHT30;60354;47.798;12.472;2023-08-06T05:48:42;14.80;80.54
72380;SHT30;60354;47.798;12.472;2023-08-06T05:51:07;14.84;79.55
72380;SHT30;60354;47.798;12.472;2023-08-06T05:53:33;14.84;79.65
72380;SHT30;60354;47.798;12.472;2023-08-06T05:55:58;14.92;78.81
72380;SHT30;60354;47.798;12.472;2023-08-06T05:58:24;14.97;79.95
72380;SHT30;60354;47.798;12.472;2023-08-06T06:00:51;14.98;79.29
72380;SHT30;60354;47.798;12.472;2023-08-06T06:03:17;15.04;80.30
72380;SHT30;60354;47.798;12.472;2023-08-06T06:05:42;15.09;80.00
72380;SHT30;60354;47.798;12.472;2023-08-06T06:08:08;15.11;80.39
72380;SHT30;60354;47.798;12.472;2023-08-06T06:10:33;15.08;80.38
72380;SHT30;60354;47.798;12.472;2023-08-06T06:13:00;15.09;78.49
72380;SHT30;60354;47.798;12.472;2023-08-06T06:15:25;15.11;78.51
72380;SHT30;60354;47.798;12.472;2023-08-06T06:17:51;15.18;79.73
72380;SHT30;60354;47.798;12.472;2023-08-06T06:20:16;15.19;79.02
72380;SHT30;60354;47.798;12.472;2023-08-06T06:22:42;15.21;78.80
72380;SHT30;60354;47.798;12.472;2023-08-06T06:25:08;15.22;79.69
72380;SHT30;60354;47.798;12.472;2023-08-06T06:27:34;15.24;81.31
72380;SHT30;60354;47.798;12.472;2023-08-06T06:30:00;15.24;79.91
72380;SHT30;60354;47.798;12.472;2023-08-06T06:32:26;15.26;79.37
72380;SHT30;60354;47.798;12.472;2023-08-06T06:34:51;15.25;79.98
72380;SHT30;60354;47.798;12.472;2023-08-06T06:37:17;15.29;76.95
72380;SHT30;60354;47.798;12.472;2023-08-06T06:39:42;15.29;76.65
72380;SHT30;60354;47.798;12.472;2023-08-06T06:42:09;15.28;77.77
72380;SHT30;60354;47.798;12.472;2023-08-06T06:44:41;15.43;78.50
72380;SHT30;60354;47.798;12.472;2023-08-06T06:47:06;15.49;76.63
72380;SHT30;60354;47.798;12.472;2023-08-06T06:49:32;15.46;76.71
72380;SHT30;60354;47.798;12.472;2023-08-06T06:51:57;15.59;75.73
72380;SHT30;60354;47.798;12.472;2023-08-06T06:54:23;15.57;74.51
72380;SHT30;60354;47.798;12.472;2023-08-06T06:56:48;15.55;75.90
72380;SHT30;60354;47.798;12.472;2023-08-06T06:59:14;15.59;75.34
72380;SHT30;60354;47.798;12.472;2023-08-06T07:01:39;15.60;75.06
72380;SHT30;60354;47.798;12.472;2023-08-06T07:04:05;15.74;79.36
72380;SHT30;60354;47.798;12.472;2023-08-06T07:06:31;15.71;76.13
72380;SHT30;60354;47.798;12.472;2023-08-06T07:08:56;15.82;75.43
72380;SHT30;60354;47.798;12.472;2023-08-06T07:11:22;15.80;75.73
72380;SHT30;60354;47.798;12.472;2023-08-06T07:13:49;15.83;77.08
72380;SHT30;60354;47.798;12.472;2023-08-06T07:16:15;15.89;75.95
72380;SHT30;60354;47.798;12.472;2023-08-06T07:18:40;15.85;75.17
72380;SHT30;60354;47.798;12.472;2023-08-06T07:21:06;15.83;74.28
72380;SHT30;60354;47.798;12.472;2023-08-06T07:23:31;15.87;73.18
72380;SHT30;60354;47.798;12.472;2023-08-06T07:25:56;15.94;73.49
72380;SHT30;60354;47.798;12.472;2023-08-06T07:28:22;16.01;73.55
72380;SHT30;60354;47.798;12.472;2023-08-06T07:30:48;16.07;75.11
72380;SHT30;60354;47.798;12.472;2023-08-06T07:33:13;16.07;74.22
72380;SHT30;60354;47.798;12.472;2023-08-06T07:35:39;16.04;75.32
72380;SHT30;60354;47.798;12.472;2023-08-06T07:38:05;16.07;74.54
72380;SHT30;60354;47.798;12.472;2023-08-06T07:40:30;16.10;74.05
72380;SHT30;60354;47.798;12.472;2023-08-06T07:42:56;16.17;74.95
72380;SHT30;60354;47.798;12.472;2023-08-06T07:45:21;16.29;73.78
72380;SHT30;60354;47.798;12.472;2023-08-06T07:47:47;16.42;74.32
72380;SHT30;60354;47.798;12.472;2023-08-06T07:50:13;16.49;73.79
72380;SHT30;60354;47.798;12.472;2023-08-06T07:52:38;16.58;74.36
72380;SHT30;60354;47.798;12.472;2023-08-06T07:55:04;16.65;73.71
72380;SHT30;60354;47.798;12.472;2023-08-06T07:57:31;16.83;73.75
72380;SHT30;60354;47.798;12.472;2023-08-06T07:59:56;17.05;71.86
72380;SHT30;60354;47.798;12.472;2023-08-06T08:02:22;17.48;70.83
72380;SHT30;60354;47.798;12.472;2023-08-06T08:04:47;17.51;71.02
72380;SHT30;60354;47.798;12.472;2023-08-06T08:07:13;17.33;71.84
72380;SHT30;60354;47.798;12.472;2023-08-06T08:09:38;17.17;71.87
72380;SHT30;60354;47.798;12.472;2023-08-06T08:12:04;17.05;72.27
72380;SHT30;60354;47.798;12.472;2023-08-06T08:14:30;17.06;71.12
72380;SHT30;60354;47.798;12.472;2023-08-06T08:17:03;16.95;70.46
72380;SHT30;60354;47.798;12.472;2023-08-06T08:19:30;16.78;74.25
72380;SHT30;60354;47.798;12.472;2023-08-06T08:21:55;16.62;76.81
72380;SHT30;60354;47.798;12.472;2023-08-06T08:24:21;16.41;77.76
72380;SHT30;60354;47.798;12.472;2023-08-06T08:26:50;16.01;80.14
72380;SHT30;60354;47.798;12.472;2023-08-06T08:29:16;15.62;81.42
72380;SHT30;60354;47.798;12.472;2023-08-06T08:31:41;15.35;82.19
72380;SHT30;60354;47.798;12.472;2023-08-06T08:34:06;15.36;83.74
72380;SHT30;60354;47.798;12.472;2023-08-06T08:36:32;15.43;85.19
72380;SHT30;60354;47.798;12.472;2023-08-06T08:38:57;15.39;84.71
72380;SHT30;60354;47.798;12.472;2023-08-06T08:41:23;15.59;85.94
72380;SHT30;60354;47.798;12.472;2023-08-06T08:43:50;15.53;84.77
72380;SHT30;60354;47.798;12.472;2023-08-06T08:46:19;15.74;86.59
72380;SHT30;60354;47.798;12.472;2023-08-06T08:48:45;15.85;84.56
72380;SHT30;60354;47.798;12.472;2023-08-06T08:51:11;15.83;84.16
72380;SHT30;60354;47.798;12.472;2023-08-06T08:53:39;15.83;81.87
72380;SHT30;60354;47.798;12.472;2023-08-06T08:56:05;15.85;81.59
72380;SHT30;60354;47.798;12.472;2023-08-06T08:58:31;15.98;81.55
72380;SHT30;60354;47.798;12.472;2023-08-06T09:00:57;16.01;80.35
72380;SHT30;60354;47.798;12.472;2023-08-06T09:03:23;16.11;80.30
72380;SHT30;60354;47.798;12.472;2023-08-06T09:05:51;16.21;79.90
72380;SHT30;60354;47.798;12.472;2023-08-06T09:08:23;16.37;78.72
72380;SHT30;60354;47.798;12.472;2023-08-06T09:10:50;16.34;78.79
72380;SHT30;60354;47.798;12.472;2023-08-06T09:13:17;16.38;78.24
72380;SHT30;60354;47.798;12.472;2023-08-06T09:15:43;16.56;75.65
72380;SHT30;60354;47.798;12.472;2023-08-06T09:18:12;16.82;76.30
72380;SHT30;60354;47.798;12.472;2023-08-06T09:20:38;16.92;73.69
72380;SHT30;60354;47.798;12.472;2023-08-06T09:23:10;16.97;73.18
72380;SHT30;60354;47.798;12.472;2023-08-06T09:25:38;17.13;75.88
72380;SHT30;60354;47.798;12.472;2023-08-06T09:28:06;17.12;72.87
72380;SHT30;60354;47.798;12.472;2023-08-06T09:30:36;17.13;72.07
72380;SHT30;60354;47.798;12.472;2023-08-06T09:33:02;17.05;72.50
72380;SHT30;60354;47.798;12.472;2023-08-06T09:35:29;16.89;71.69
72380;SHT30;60354;47.798;12.472;2023-08-06T09:37:55;17.12;72.65
72380;SHT30;60354;47.798;12.472;2023-08-06T09:40:25;17.34;71.36
72380;SHT30;60354;47.798;12.472;2023-08-06T09:42:52;17.44;71.16
72380;SHT30;60354;47.798;12.472;2023-08-06T09:45:17;17.79;71.27
72380;SHT30;60354;47.798;12.472;2023-08-06T09:47:43;17.55;69.02
72380;SHT30;60354;47.798;12.472;2023-08-06T09:50:19;17.66;68.53
72380;SHT30;60354;47.798;12.472;2023-08-06T09:52:46;17.48;69.51
72380;SHT30;60354;47.798;12.472;2023-08-06T09:55:12;17.24;67.11
72380;SHT30;60354;47.798;12.472;2023-08-06T09:57:40;17.10;67.55
72380;SHT30;60354;47.798;12.472;2023-08-06T10:00:07;17.15;69.02
72380;SHT30;60354;47.798;12.472;2023-08-06T10:02:38;17.07;69.31
72380;SHT30;60354;47.798;12.472;2023-08-06T10:05:07;16.71;68.77
72380;SHT30;60354;47.798;12.472;2023-08-06T10:07:34;16.64;71.01
72380;SHT30;60354;47.798;12.472;2023-08-06T10:10:00;16.58;71.00
72380;SHT30;60354;47.798;12.472;2023-08-06T10:12:29;16.55;69.98
72380;SHT30;60354;47.798;12.472;2023-08-06T10:14:57;16.48;69.93
72380;SHT30;60354;47.798;12.472;2023-08-06T10:17:25;16.56;69.26
72380;SHT30;60354;47.798;12.472;2023-08-06T10:19:51;16.62;67.75
72380;SHT30;60354;47.798;12.472;2023-08-06T10:22:20;16.83;68.95
72380;SHT30;60354;47.798;12.472;2023-08-06T10:24:52;17.02;67.80
72380;SHT30;60354;47.798;12.472;2023-08-06T10:27:34;17.09;67.92
72380;SHT30;60354;47.798;12.472;2023-08-06T10:32:49;17.17;67.51
72380;SHT30;60354;47.798;12.472;2023-08-06T10:35:35;17.27;68.73
72380;SHT30;60354;47.798;12.472;2023-08-06T10:41:15;17.31;68.39
72380;SHT30;60354;47.798;12.472;2023-08-06T10:43:36;17.46;66.95
72380;SHT30;60354;47.798;12.472;2023-08-06T10:46:20;17.61;66.34
72380;SHT30;60354;47.798;12.472;2023-08-06T10:48:46;17.81;67.23
72380;SHT30;60354;47.798;12.472;2023-08-06T10:51:12;17.97;66.38
72380;SHT30;60354;47.798;12.472;2023-08-06T10:53:42;17.68;66.95
72380;SHT30;60354;47.798;12.472;2023-08-06T10:56:21;17.70;68.06
72380;SHT30;60354;47.798;12.472;2023-08-06T10:58:49;17.67;67.43
72380;SHT30;60354;47.798;12.472;2023-08-06T11:01:15;17.50;66.30
72380;SHT30;60354;47.798;12.472;2023-08-06T11:03:42;17.71;64.62
72380;SHT30;60354;47.798;12.472;2023-08-06T11:06:08;17.68;64.35
72380;SHT30;60354;47.798;12.472;2023-08-06T11:08:40;17.63;64.92
72380;SHT30;60354;47.798;12.472;2023-08-06T11:11:14;17.53;65.48
72380;SHT30;60354;47.798;12.472;2023-08-06T11:13:44;17.44;66.41
72380;SHT30;60354;47.798;12.472;2023-08-06T11:16:12;17.50;65.22
72380;SHT30;60354;47.798;12.472;2023-08-06T11:18:40;17.48;64.79
72380;SHT30;60354;47.798;12.472;2023-08-06T11:21:05;17.53;66.41
72380;SHT30;60354;47.798;12.472;2023-08-06T11:23:31;17.33;67.86
72380;SHT30;60354;47.798;12.472;2023-08-06T11:25:57;17.38;67.32
72380;SHT30;60354;47.798;12.472;2023-08-06T11:28:23;17.50;67.37
72380;SHT30;60354;47.798;12.472;2023-08-06T11:30:49;17.61;65.76
72380;SHT30;60354;47.798;12.472;2023-08-06T11:33:25;17.58;65.92
72380;SHT30;60354;47.798;12.472;2023-08-06T11:35:55;17.36;65.49
72380;SHT30;60354;47.798;12.472;2023-08-06T11:38:24;17.34;65.36
72380;SHT30;60354;47.798;12.472;2023-08-06T11:40:50;17.31;66.18
72380;SHT30;60354;47.798;12.472;2023-08-06T11:43:18;17.26;66.05
72380;SHT30;60354;47.798;12.472;2023-08-06T11:45:44;17.17;66.25
72380;SHT30;60354;47.798;12.472;2023-08-06T11:48:09;17.31;67.29
72380;SHT30;60354;47.798;12.472;2023-08-06T11:50:38;17.12;65.16
72380;SHT30;60354;47.798;12.472;2023-08-06T11:53:16;17.36;65.82
72380;SHT30;60354;47.798;12.472;2023-08-06T11:55:42;17.43;64.48
72380;SHT30;60354;47.798;12.472;2023-08-06T11:58:09;17.70;63.38
72380;SHT30;60354;47.798;12.472;2023-08-06T12:00:36;17.82;63.20
72380;SHT30;60354;47.798;12.472;2023-08-06T12:03:01;17.82;64.33
72380;SHT30;60354;47.798;12.472;2023-08-06T12:05:31;17.79;65.92
72380;SHT30;60354;47.798;12.472;2023-08-06T12:08:02;17.07;71.32
72380;SHT30;60354;47.798;12.472;2023-08-06T12:10:30;16.93;72.40
72380;SHT30;60354;47.798;12.472;2023-08-06T12:12:55;16.87;70.99
72380;SHT30;60354;47.798;12.472;2023-08-06T12:15:22;17.15;72.72
72380;SHT30;60354;47.798;12.472;2023-08-06T12:17:47;17.43;73.42
72380;SHT30;60354;47.798;12.472;2023-08-06T12:20:13;17.27;70.37
72380;SHT30;60354;47.798;12.472;2023-08-06T12:22:39;17.33;67.56
72380;SHT30;60354;47.798;12.472;2023-08-06T12:25:07;17.77;66.90
72380;SHT30;60354;47.798;12.472;2023-08-06T12:27:34;18.12;65.22
72380;SHT30;60354;47.798;12.472;2023-08-06T12:29:59;18.19;63.55
72380;SHT30;60354;47.798;12.472;2023-08-06T12:32:25;18.19;62.91
72380;SHT30;60354;47.798;12.472;2023-08-06T12:34:51;18.13;62.48
72380;SHT30;60354;47.798;12.472;2023-08-06T12:37:16;17.88;65.94
72380;SHT30;60354;47.798;12.472;2023-08-06T12:39:42;17.68;67.33
72380;SHT30;60354;47.798;12.472;2023-08-06T12:42:07;17.71;65.25
72380;SHT30;60354;47.798;12.472;2023-08-06T12:44:33;17.98;64.95
72380;SHT30;60354;47.798;12.472;2023-08-06T12:46:58;18.09;64.31
72380;SHT30;60354;47.798;12.472;2023-08-06T12:49:25;18.29;63.36
72380;SHT30;60354;47.798;12.472;2023-08-06T12:51:52;18.49;62.64
72380;SHT30;60354;47.798;12.472;2023-08-06T12:54:18;18.30;62.49
72380;SHT30;60354;47.798;12.472;2023-08-06T12:56:44;18.33;62.19
72380;SHT30;60354;47.798;12.472;2023-08-06T12:59:10;18.35;62.40
72380;SHT30;60354;47.798;12.472;2023-08-06T13:01:37;18.80;62.19
72380;SHT30;60354;47.798;12.472;2023-08-06T13:04:03;18.73;61.84
72380;SHT30;60354;47.798;12.472;2023-08-06T13:06:29;19.06;60.82
72380;SHT30;60354;47.798;12.472;2023-08-06T13:08:56;18.93;59.97
72380;SHT30;60354;47.798;12.472;2023-08-06T13:11:22;19.10;60.97
72380;SHT30;60354;47.798;12.472;2023-08-06T13:13:47;19.14;61.10
72380;SHT30;60354;47.798;12.472;2023-08-06T13:16:13;18.94;60.76
72380;SHT30;60354;47.798;12.472;2023-08-06T13:18:38;18.52;60.11
72380;SHT30;60354;47.798;12.472;2023-08-06T13:21:04;18.37;61.04
72380;SHT30;60354;47.798;12.472;2023-08-06T13:23:29;18.46;60.77
72380;SHT30;60354;47.798;12.472;2023-08-06T13:25:55;18.39;60.33
72380;SHT30;60354;47.798;12.472;2023-08-06T13:28:21;18.35;61.28
72380;SHT30;60354;47.798;12.472;2023-08-06T13:30:46;18.32;60.77
72380;SHT30;60354;47.798;12.472;2023-08-06T13:33:12;18.32;61.15
72380;SHT30;60354;47.798;12.472;2023-08-06T13:35:38;17.99;61.47
72380;SHT30;60354;47.798;12.472;2023-08-06T13:38:03;18.15;62.29
72380;SHT30;60354;47.798;12.472;2023-08-06T13:40:31;17.99;61.65
72380;SHT30;60354;47.798;12.472;2023-08-06T13:42:57;17.85;61.95
72380;SHT30;60354;47.798;12.472;2023-08-06T13:45:23;17.87;63.13
72380;SHT30;60354;47.798;12.472;2023-08-06T13:47:48;17.71;63.12
72380;SHT30;60354;47.798;12.472;2023-08-06T13:50:13;17.64;62.92
72380;SHT30;60354;47.798;12.472;2023-08-06T13:52:39;17.58;63.99
72380;SHT30;60354;47.798;12.472;2023-08-06T13:55:06;17.55;64.33
72380;SHT30;60354;47.798;12.472;2023-08-06T13:57:32;17.47;64.37
72380;SHT30;60354;47.798;12.472;2023-08-06T13:59:57;17.40;63.53
72380;SHT30;60354;47.798;12.472;2023-08-06T14:02:23;17.30;64.98
72380;SHT30;60354;47.798;12.472;2023-08-06T14:04:48;17.31;64.69
72380;SHT30;60354;47.798;12.472;2023-08-06T14:07:14;17.36;67.87
72380;SHT30;60354;47.798;12.472;2023-08-06T14:09:39;17.28;67.10
72380;SHT30;60354;47.798;12.472;2023-08-06T14:12:06;16.96;70.20
72380;SHT30;60354;47.798;12.472;2023-08-06T14:14:31;17.12;71.20
72380;SHT30;60354;47.798;12.472;2023-08-06T14:16:57;16.90;68.25
72380;SHT30;60354;47.798;12.472;2023-08-06T14:19:22;17.03;67.66
72380;SHT30;60354;47.798;12.472;2023-08-06T14:21:48;17.10;68.12
72380;SHT30;60354;47.798;12.472;2023-08-06T14:24:14;17.24;69.82
72380;SHT30;60354;47.798;12.472;2023-08-06T14:26:40;17.30;69.30
72380;SHT30;60354;47.798;12.472;2023-08-06T14:29:06;17.33;69.94
72380;SHT30;60354;47.798;12.472;2023-08-06T14:31:31;17.37;71.56
72380;SHT30;60354;47.798;12.472;2023-08-06T14:33:57;17.34;73.24
72380;SHT30;60354;47.798;12.472;2023-08-06T14:36:22;17.20;71.51
72380;SHT30;60354;47.798;12.472;2023-08-06T14:38:48;16.89;74.09
72380;SHT30;60354;47.798;12.472;2023-08-06T14:41:13;16.62;76.31
72380;SHT30;60354;47.798;12.472;2023-08-06T14:43:39;16.58;74.92
72380;SHT30;60354;47.798;12.472;2023-08-06T14:46:04;16.16;76.08
72380;SHT30;60354;47.798;12.472;2023-08-06T14:48:33;15.91;77.84
72380;SHT30;60354;47.798;12.472;2023-08-06T14:50:58;15.87;76.33
72380;SHT30;60354;47.798;12.472;2023-08-06T14:53:24;15.91;78.13
72380;SHT30;60354;47.798;12.472;2023-08-06T14:55:49;15.91;77.62
72380;SHT30;60354;47.798;12.472;2023-08-06T14:58:16;15.98;80.07
72380;SHT30;60354;47.798;12.472;2023-08-06T15:00:41;15.97;78.60
72380;SHT30;60354;47.798;12.472;2023-08-06T15:03:07;15.91;79.76
72380;SHT30;60354;47.798;12.472;2023-08-06T15:05:32;15.85;78.13
72380;SHT30;60354;47.798;12.472;2023-08-06T15:07:58;15.71;78.96
72380;SHT30;60354;47.798;12.472;2023-08-06T15:10:23;15.94;79.14
72380;SHT30;60354;47.798;12.472;2023-08-06T15:12:49;16.03;79.93
72380;SHT30;60354;47.798;12.472;2023-08-06T15:15:14;16.03;78.44
72380;SHT30;60354;47.798;12.472;2023-08-06T15:17:40;15.85;80.09
72380;SHT30;60354;47.798;12.472;2023-08-06T15:20:06;15.69;78.54
72380;SHT30;60354;47.798;12.472;2023-08-06T15:22:31;15.59;80.28